createdAt,value
2023-03-26T00:01:52.846Z,100749.47
2023-03-26T00:04:19.688Z,100760.06
2023-03-26T00:06:46.606Z,100760.25
2023-03-26T00:09:13.758Z,100758.16
2023-03-26T00:11:40.749Z,100758.34
2023-03-26T00:14:07.762Z,100754.97
2023-03-26T00:16:34.602Z,100765.53
2023-03-26T00:19:02.823Z,100762.03
2023-03-26T00:21:30.461Z,100760.31
2023-03-26T00:23:58.977Z,100769.13
2023-03-26T00:26:26.877Z,100760.44
2023-03-26T00:28:53.555Z,100757.00
2023-03-26T00:31:20.266Z,100750.84
2023-03-26T00:33:46.967Z,100757.84
2023-03-26T00:36:16.899Z,100746.41
2023-03-26T00:38:44.919Z,100744.72
2023-03-26T00:41:13.736Z,100733.28
2023-03-26T00:43:40.750Z,100737.91
2023-03-26T00:46:07.744Z,100740.31
2023-03-26T00:48:44.404Z,100727.88
2023-03-26T00:51:13.556Z,100740.97
2023-03-26T00:53:42.438Z,100747.53
2023-03-26T00:56:09.684Z,100740.13
2023-03-26T00:58:37.178Z,100737.84
2023-03-26T01:01:07.472Z,100740.06
2023-03-26T01:03:36.491Z,100743.66
2023-03-26T01:06:04.589Z,100732.56
2023-03-26T01:08:33.725Z,100742.53
2023-03-26T01:11:06.395Z,100741.50
2023-03-26T01:13:37.520Z,100733.41
2023-03-26T01:16:09.333Z,100734.09
2023-03-26T01:18:38.118Z,100728.63
2023-03-26T01:21:05.539Z,100728.63
2023-03-26T01:23:39.749Z,100724.03
2023-03-26T01:26:16.521Z,100725.81
2023-03-26T01:28:43.588Z,100727.53
2023-03-26T01:31:18.283Z,100728.19
2023-03-26T01:33:49.743Z,100715.63
2023-03-26T01:36:21.501Z,100717.53
2023-03-26T01:38:54.695Z,100709.59
2023-03-26T01:41:31.801Z,100705.34
2023-03-26T01:44:06.457Z,100690.94
2023-03-26T01:46:34.626Z,100689.41
2023-03-26T01:49:02.595Z,100690.78
2023-03-26T01:51:32.706Z,100690.19
2023-03-26T01:54:00.674Z,100678.59
2023-03-26T01:56:36.911Z,100684.66
2023-03-26T01:59:18.485Z,100683.28
2023-03-26T02:01:55.521Z,100688.91
2023-03-26T02:04:29.919Z,100683.03
2023-03-26T02:07:02.555Z,100670.16
2023-03-26T02:09:33.518Z,100671.84
2023-03-26T02:12:03.638Z,100663.28
2023-03-26T02:14:30.749Z,100657.16
2023-03-26T02:16:57.485Z,100659.25
2023-03-26T02:19:24.697Z,100655.69
2023-03-26T02:21:51.670Z,100648.63
2023-03-26T02:24:19.902Z,100649.19
2023-03-26T02:26:49.255Z,100651.44
2023-03-26T02:29:17.880Z,100647.50
2023-03-26T02:31:45.175Z,100646.31
2023-03-26T02:34:12.154Z,100647.06
2023-03-26T02:36:42.719Z,100637.53
2023-03-26T02:39:10.008Z,100637.44
2023-03-26T02:41:38.553Z,100640.84
2023-03-26T02:44:08.717Z,100627.38
2023-03-26T02:47:15.274Z,100628.06
2023-03-26T02:50:11.037Z,100621.41
2023-03-26T02:53:15.810Z,100609.00
2023-03-26T02:55:46.616Z,100603.72
2023-03-26T02:58:13.899Z,100600.88
2023-03-26T03:00:40.872Z,100596.53
2023-03-26T03:03:32.274Z,100599.75
2023-03-26T03:05:59.470Z,100599.06
2023-03-26T03:08:55.556Z,100598.53
2023-03-26T03:11:34.923Z,100608.56
2023-03-26T03:14:01.972Z,100592.66
2023-03-26T03:16:30.999Z,100595.19
2023-03-26T03:19:04.443Z,100597.59
2023-03-26T03:21:37.110Z,100591.53
2023-03-26T03:24:04.260Z,100597.66
2023-03-26T03:26:35.325Z,100598.59
2023-03-26T03:29:13.453Z,100601.16
2023-03-26T03:31:40.336Z,100591.53
2023-03-26T03:34:16.530Z,100592.53
2023-03-26T03:36:48.573Z,100593.41
2023-03-26T03:39:28.283Z,100586.34
2023-03-26T03:41:55.142Z,100584.63
2023-03-26T03:44:22.261Z,100588.69
2023-03-26T03:46:49.579Z,100582.97
2023-03-26T03:49:17.826Z,100586.63
2023-03-26T03:51:44.940Z,100589.75
2023-03-26T03:54:23.099Z,100591.13
2023-03-26T03:57:08.929Z,100588.16
2023-03-26T03:59:48.049Z,100587.41
2023-03-26T04:02:16.957Z,100594.84
2023-03-26T04:04:56.809Z,100589.91
2023-03-26T04:07:24.285Z,100593.31
2023-03-26T04:10:15.453Z,100588.19
2023-03-26T04:13:01.469Z,100590.44
2023-03-26T04:15:54.505Z,100596.13
2023-03-26T04:18:23.139Z,100591.31
2023-03-26T04:20:51.428Z,100598.19
2023-03-26T04:23:25.621Z,100592.69
2023-03-26T04:26:02.764Z,100590.06
2023-03-26T04:28:45.564Z,100589.91
2023-03-26T04:31:19.899Z,100595.97
2023-03-26T04:33:47.421Z,100594.00
2023-03-26T04:36:18.157Z,100590.97
2023-03-26T04:38:49.234Z,100597.69
2023-03-26T04:41:18.083Z,100593.03
2023-03-26T04:43:54.077Z,100583.34
2023-03-26T04:46:39.615Z,100578.94
2023-03-26T04:49:12.702Z,100580.94
2023-03-26T04:51:41.894Z,100566.84
2023-03-26T04:54:45.206Z,100567.34
2023-03-26T04:57:21.237Z,100558.50
2023-03-26T04:59:56.548Z,100561.22
2023-03-26T05:02:23.509Z,100558.22
2023-03-26T05:04:53.144Z,100557.59
2023-03-26T05:07:22.951Z,100545.00
2023-03-26T05:09:55.330Z,100546.00
2023-03-26T05:12:23.561Z,100541.06
2023-03-26T05:14:59.055Z,100542.16
2023-03-26T05:17:52.048Z,100544.34
2023-03-26T05:20:28.973Z,100542.63
2023-03-26T05:22:57.322Z,100543.41
2023-03-26T05:25:27.999Z,100545.78
2023-03-26T05:27:55.940Z,100541.91
2023-03-26T05:30:26.799Z,100548.94
2023-03-26T05:32:58.449Z,100540.81
2023-03-26T05:35:30.685Z,100527.97
2023-03-26T05:37:58.904Z,100528.50
2023-03-26T05:40:26.541Z,100528.16
2023-03-26T05:43:15.965Z,100529.06
2023-03-26T05:45:49.692Z,100520.22
2023-03-26T05:48:27.536Z,100519.53
2023-03-26T05:50:56.302Z,100520.75
2023-03-26T05:53:27.166Z,100514.75
2023-03-26T05:56:22.932Z,100509.78
2023-03-26T05:59:14.315Z,100504.06
2023-03-26T06:02:12.888Z,100499.22
2023-03-26T06:05:04.247Z,100484.63
2023-03-26T06:07:57.326Z,100478.91
2023-03-26T06:10:31.656Z,100471.72
2023-03-26T06:12:58.629Z,100475.78
2023-03-26T06:15:25.407Z,100469.00
2023-03-26T06:18:06.014Z,100468.69
2023-03-26T06:21:05.801Z,100457.81
2023-03-26T06:24:05.551Z,100464.97
2023-03-26T06:27:05.290Z,100464.69
2023-03-26T06:29:54.990Z,100465.75
2023-03-26T06:32:35.895Z,100470.38
2023-03-26T06:35:12.960Z,100465.59
2023-03-26T06:37:40.391Z,100468.03
2023-03-26T06:40:08.770Z,100459.25
2023-03-26T06:43:08.109Z,100479.81
2023-03-26T06:46:00.160Z,100483.44
2023-03-26T06:48:32.632Z,100482.47
2023-03-26T06:51:25.774Z,100479.75
2023-03-26T06:54:12.600Z,100481.53
2023-03-26T06:56:48.756Z,100480.69
2023-03-26T06:59:26.133Z,100477.09
2023-03-26T07:02:11.873Z,100480.28
2023-03-26T07:04:57.395Z,100473.31
2023-03-26T07:07:59.916Z,100452.56
2023-03-26T07:10:45.487Z,100469.72
2023-03-26T07:13:28.646Z,100478.44
2023-03-26T07:16:15.512Z,100466.13
2023-03-26T07:19:00.656Z,100469.91
2023-03-26T07:21:33.980Z,100479.00
2023-03-26T07:24:09.182Z,100483.44
2023-03-26T07:27:16.744Z,100470.81
2023-03-26T07:29:48.643Z,100477.69
2023-03-26T07:32:52.228Z,100482.00
2023-03-26T07:35:47.016Z,100481.00
2023-03-26T07:38:54.954Z,100478.25
2023-03-26T07:41:47.063Z,100473.53
2023-03-26T07:44:43.612Z,100481.72
2023-03-26T07:47:31.868Z,100482.19
2023-03-26T07:50:25.558Z,100479.81
2023-03-26T07:53:25.452Z,100477.03
2023-03-26T07:56:06.109Z,100471.22
2023-03-26T07:59:04.304Z,100456.78
2023-03-26T08:01:56.514Z,100471.44
2023-03-26T08:04:52.132Z,100480.75
2023-03-26T08:07:52.869Z,100489.53
2023-03-26T08:10:30.340Z,100488.88
2023-03-26T08:13:16.540Z,100484.50
2023-03-26T08:15:49.713Z,100487.03
2023-03-26T08:18:27.295Z,100479.00
2023-03-26T08:20:58.454Z,100483.97
2023-03-26T08:23:32.016Z,100489.28
2023-03-26T08:26:04.553Z,100480.63
2023-03-26T08:28:49.538Z,100494.81
2023-03-26T08:31:18.645Z,100483.56
2023-03-26T08:33:45.528Z,100486.75
2023-03-26T08:36:12.390Z,100491.97
2023-03-26T08:38:40.505Z,100495.72
2023-03-26T08:41:35.178Z,100494.13
2023-03-26T08:44:37.077Z,100485.50
2023-03-26T08:47:34.811Z,100501.63
2023-03-26T08:50:43.846Z,100500.56
2023-03-26T08:53:40.138Z,100503.13
2023-03-26T08:56:21.716Z,100496.00
2023-03-26T08:59:25.874Z,100504.81
2023-03-26T09:02:15.769Z,100504.38
2023-03-26T09:05:26.456Z,100503.00
2023-03-26T09:08:22.465Z,100499.75
2023-03-26T09:11:07.874Z,100500.03
2023-03-26T09:14:09.152Z,100502.41
2023-03-26T09:16:59.106Z,100504.38
2023-03-26T09:19:57.151Z,100510.34
2023-03-26T09:22:47.064Z,100505.25
2023-03-26T09:25:29.735Z,100508.75
2023-03-26T09:28:22.193Z,100508.88
2023-03-26T09:31:20.809Z,100516.28
2023-03-26T09:33:55.623Z,100515.44
2023-03-26T09:36:35.219Z,100518.09
2023-03-26T09:39:09.620Z,100512.44
2023-03-26T09:41:42.985Z,100511.59
2023-03-26T09:44:34.167Z,100516.91
2023-03-26T09:47:34.132Z,100508.19
2023-03-26T09:50:22.982Z,100519.84
2023-03-26T09:53:08.943Z,100524.44
2023-03-26T09:55:50.010Z,100519.22
2023-03-26T09:58:52.065Z,100525.28
2023-03-26T10:01:29.533Z,100523.84
2023-03-26T10:04:22.110Z,100518.50
2023-03-26T10:06:57.873Z,100513.19
2023-03-26T10:09:41.113Z,100525.53
2023-03-26T10:12:20.826Z,100522.13
2023-03-26T10:15:01.131Z,100524.53
2023-03-26T10:17:38.630Z,100534.78
2023-03-26T10:20:36.631Z,100532.00
2023-03-26T10:23:18.557Z,100531.69
2023-03-26T10:25:58.261Z,100527.53
2023-03-26T10:28:51.342Z,100526.09
2023-03-26T10:31:26.912Z,100539.66
2023-03-26T10:34:02.514Z,100545.81
2023-03-26T10:36:32.371Z,100534.03
2023-03-26T10:39:36.836Z,100541.16
2023-03-26T10:42:20.408Z,100544.94
2023-03-26T10:45:10.324Z,100544.13
2023-03-26T10:48:03.405Z,100544.53
2023-03-26T10:50:40.591Z,100549.84
2023-03-26T10:53:12.859Z,100548.63
2023-03-26T10:55:44.209Z,100551.41
2023-03-26T10:58:18.304Z,100557.84
2023-03-26T11:00:54.840Z,100554.69
2023-03-26T11:03:46.108Z,100563.44
2023-03-26T11:06:31.111Z,100566.19
2023-03-26T11:09:08.831Z,100573.59
2023-03-26T11:11:44.128Z,100573.47
2023-03-26T11:14:31.859Z,100569.25
2023-03-26T11:17:10.100Z,100576.94
2023-03-26T11:19:47.537Z,100567.06
2023-03-26T11:22:27.467Z,100570.22
2023-03-26T11:25:20.068Z,100566.38
2023-03-26T11:28:11.248Z,100571.31
2023-03-26T11:30:46.906Z,100582.28
2023-03-26T11:33:18.740Z,100586.72
2023-03-26T11:35:49.333Z,100580.69
2023-03-26T11:38:21.946Z,100590.31
2023-03-26T11:40:52.423Z,100595.94
2023-03-26T11:43:39.234Z,100603.84
2023-03-26T11:46:10.307Z,100598.94
2023-03-26T11:48:41.696Z,100607.00
2023-03-26T11:51:11.227Z,100602.50
2023-03-26T11:53:38.336Z,100606.72
2023-03-26T11:56:12.506Z,100614.56
2023-03-26T11:58:47.533Z,100620.19
2023-03-26T12:01:16.226Z,100614.44
2023-03-26T12:03:43.082Z,100617.09
2023-03-26T12:06:24.246Z,100626.91
2023-03-26T12:08:51.292Z,100628.19
2023-03-26T12:11:23.521Z,100621.50
2023-03-26T12:13:55.428Z,100626.44
2023-03-26T12:16:23.102Z,100632.94
2023-03-26T12:18:59.812Z,100630.78
2023-03-26T12:21:26.787Z,100632.41
2023-03-26T12:23:59.938Z,100637.47
2023-03-26T12:26:37.949Z,100640.72
2023-03-26T12:29:21.514Z,100644.75
2023-03-26T12:32:03.698Z,100644.66
2023-03-26T12:34:33.277Z,100651.00
2023-03-26T12:37:00.177Z,100650.06
2023-03-26T12:40:07.794Z,100657.84
2023-03-26T12:44:47.973Z,100664.41
2023-03-26T12:45:20.124Z,100658.34
2023-03-26T12:48:00.250Z,100663.03
2023-03-26T12:50:42.003Z,100669.06
2023-03-26T12:53:26.803Z,100668.25
2023-03-26T12:56:01.557Z,100664.16
2023-03-26T12:59:06.772Z,100668.75
2023-03-26T13:01:54.563Z,100691.72
2023-03-26T13:07:37.500Z,100694.38
2023-03-26T13:10:34.667Z,100702.34
2023-03-26T13:13:18.600Z,100697.91
2023-03-26T13:15:49.370Z,100710.22
2023-03-26T13:18:31.985Z,100690.69
2023-03-26T13:21:04.778Z,100707.88
2023-03-26T13:23:46.900Z,100708.34
2023-03-26T13:26:26.591Z,100697.03
2023-03-26T13:29:04.652Z,100706.53
2023-03-26T13:31:37.571Z,100712.44
2023-03-26T13:34:18.187Z,100705.28
2023-03-26T13:36:55.836Z,100717.19
2023-03-26T13:39:30.460Z,100710.94
2023-03-26T13:42:14.012Z,100713.59
2023-03-26T13:45:04.500Z,100721.91
2023-03-26T13:47:36.428Z,100721.53
2023-03-26T13:50:24.707Z,100725.91
2023-03-26T13:53:00.867Z,100726.19
2023-03-26T13:55:33.036Z,100723.13
2023-03-26T13:58:05.943Z,100715.84
2023-03-26T14:00:50.500Z,100725.81
2023-03-26T14:03:35.504Z,100730.66
2023-03-26T14:06:12.991Z,100751.47
2023-03-26T14:08:44.972Z,100723.72
2023-03-26T14:11:17.493Z,100747.47
2023-03-26T14:13:49.903Z,100746.06
2023-03-26T14:16:21.483Z,100754.09
2023-03-26T14:18:56.619Z,100758.06
2023-03-26T14:21:49.412Z,100772.56
2023-03-26T14:24:43.829Z,100772.28
2023-03-26T14:27:24.470Z,100767.91
2023-03-26T14:30:20.716Z,100768.84
2023-03-26T14:32:56.929Z,100776.69
2023-03-26T14:35:32.579Z,100763.75
2023-03-26T14:38:41.397Z,100767.81
2023-03-26T14:41:24.473Z,100777.78
2023-03-26T14:44:27.712Z,100773.03
2023-03-26T14:47:15.807Z,100790.44
2023-03-26T14:50:15.133Z,100789.41
2023-03-26T14:52:47.791Z,100799.63
2023-03-26T14:55:37.422Z,100802.00
2023-03-26T14:58:43.359Z,100813.53
2023-03-26T15:01:23.864Z,100812.78
2023-03-26T15:04:27.336Z,100815.53
2023-03-26T15:07:23.583Z,100816.00
2023-03-26T15:10:30.361Z,100824.66
2023-03-26T15:13:14.132Z,100825.38
2023-03-26T15:16:04.454Z,100816.25
2023-03-26T15:19:14.344Z,100840.41
2023-03-26T15:22:13.926Z,100849.16
2023-03-26T15:25:25.329Z,100852.66
2023-03-26T15:28:24.863Z,100843.97
2023-03-26T15:31:11.253Z,100858.72
2023-03-26T15:34:05.731Z,100861.72
2023-03-26T15:37:02.261Z,100857.84
2023-03-26T15:40:00.082Z,100871.41
2023-03-26T15:42:38.355Z,100871.75
2023-03-26T15:45:34.801Z,100882.81
2023-03-26T15:48:44.020Z,100890.41
2023-03-26T15:51:46.060Z,100881.81
2023-03-26T15:54:22.633Z,100891.03
2023-03-26T15:57:07.852Z,100899.25
2023-03-26T15:59:50.172Z,100903.19
2023-03-26T16:02:27.796Z,100904.59
2023-03-26T16:08:18.058Z,100917.78
2023-03-26T16:10:51.806Z,100912.09
2023-03-26T16:13:30.860Z,100921.09
2023-03-26T16:16:45.827Z,100934.91
2023-03-26T16:19:52.325Z,100938.13
2023-03-26T16:22:55.124Z,100946.16
2023-03-26T16:25:29.060Z,100954.81
2023-03-26T16:28:31.277Z,100960.97
2023-03-26T16:31:38.477Z,100963.13
2023-03-26T16:34:25.466Z,100963.63
2023-03-26T16:36:52.983Z,100967.59
2023-03-26T16:39:25.013Z,100968.69
2023-03-26T16:42:06.205Z,100981.38
2023-03-26T16:44:43.388Z,100990.16
2023-03-26T16:47:21.324Z,100986.53
2023-03-26T16:50:08.997Z,100996.56
2023-03-26T16:52:44.326Z,100993.16
2023-03-26T16:55:22.422Z,100999.31
2023-03-26T16:57:56.778Z,100992.47
2023-03-26T17:00:45.840Z,100998.63
2023-03-26T17:03:23.353Z,101011.19
2023-03-26T17:06:04.818Z,101011.28
2023-03-26T17:08:39.820Z,101022.94
2023-03-26T17:11:19.849Z,101025.81
2023-03-26T17:13:55.408Z,101030.81
2023-03-26T17:16:26.984Z,101041.69
2023-03-26T17:19:00.721Z,101054.81
2023-03-26T17:21:45.918Z,101052.41
2023-03-26T17:24:25.035Z,101065.00
2023-03-26T17:27:42.069Z,101068.03
2023-03-26T17:33:23.685Z,101083.31
2023-03-26T17:36:16.436Z,101080.84
2023-03-26T17:39:18.058Z,101091.56
2023-03-26T17:42:17.702Z,101091.69
2023-03-26T17:44:47.600Z,101095.13
2023-03-26T17:47:30.663Z,101101.09
2023-03-26T17:50:01.479Z,101107.41
2023-03-26T17:52:40.063Z,101111.22
2023-03-26T17:55:11.769Z,101113.19
2023-03-26T17:57:45.947Z,101119.50
2023-03-26T18:00:17.595Z,101121.47
2023-03-26T18:02:49.950Z,101126.97
2023-03-26T18:05:22.809Z,101114.06
2023-03-26T18:08:15.096Z,101134.66
2023-03-26T18:11:01.656Z,101143.72
2023-03-26T18:14:00.792Z,101153.44
2023-03-26T18:16:32.468Z,101156.16
2023-03-26T18:19:11.410Z,101157.22
2023-03-26T18:21:40.326Z,101154.59
2023-03-26T18:24:13.439Z,101163.06
2023-03-26T18:26:42.881Z,101172.78
2023-03-26T18:29:18.154Z,101178.16
2023-03-26T18:31:46.543Z,101178.28
2023-03-26T18:34:16.038Z,101185.47
2023-03-26T18:36:43.014Z,101197.25
2023-03-26T18:39:12.645Z,101183.91
2023-03-26T18:41:41.375Z,101206.03
2023-03-26T18:44:18.527Z,101200.78
2023-03-26T18:46:54.909Z,101217.31
2023-03-26T18:49:27.164Z,101219.81
2023-03-26T18:51:57.495Z,101219.94
2023-03-26T18:54:29.114Z,101230.41
2023-03-26T18:56:57.943Z,101234.19
2023-03-26T18:59:28.457Z,101230.75
2023-03-26T19:01:56.995Z,101236.16
2023-03-26T19:04:25.751Z,101234.59
2023-03-26T19:06:53.466Z,101234.78
2023-03-26T19:09:31.201Z,101257.75
2023-03-26T19:12:05.815Z,101258.34
2023-03-26T19:14:34.650Z,101261.78
2023-03-26T19:17:03.386Z,101262.81
2023-03-26T19:19:33.891Z,101266.63
2023-03-26T19:22:02.740Z,101268.69
2023-03-26T19:24:29.860Z,101267.91
2023-03-26T19:26:57.839Z,101269.38
2023-03-26T19:29:28.641Z,101279.84
2023-03-26T19:32:04.574Z,101279.31
2023-03-26T19:34:32.964Z,101285.50
2023-03-26T19:37:02.295Z,101289.88
2023-03-26T19:39:40.613Z,101290.47
2023-03-26T19:42:15.164Z,101299.44
2023-03-26T19:44:43.609Z,101300.28
2023-03-26T19:47:19.053Z,101302.16
2023-03-26T19:49:53.695Z,101304.91
2023-03-26T19:52:22.730Z,101313.50
2023-03-26T19:54:59.459Z,101302.22
2023-03-26T19:57:28.568Z,101306.19
2023-03-26T19:59:55.397Z,101313.16
2023-03-26T20:02:24.005Z,101323.53
2023-03-26T20:04:51.225Z,101310.06
2023-03-26T20:07:19.376Z,101328.53
2023-03-26T20:09:48.536Z,101318.38
2023-03-26T20:12:19.672Z,101319.78
2023-03-26T20:14:47.898Z,101327.09
2023-03-26T20:17:16.932Z,101333.28
2023-03-26T20:19:46.934Z,101338.31
2023-03-26T20:22:16.240Z,101331.91
2023-03-26T20:24:44.229Z,101341.22
2023-03-26T20:27:11.073Z,101347.25
2023-03-26T20:29:38.289Z,101368.53
2023-03-26T20:32:06.903Z,101372.56
2023-03-26T20:34:33.618Z,101362.22
2023-03-26T20:37:01.883Z,101373.94
2023-03-26T20:39:28.758Z,101362.53
2023-03-26T20:41:55.903Z,101374.84
2023-03-26T20:44:23.138Z,101382.91
2023-03-26T20:46:50.673Z,101378.47
2023-03-26T20:49:25.570Z,101375.03
2023-03-26T20:51:54.395Z,101389.41
2023-03-26T20:54:27.384Z,101386.06
2023-03-26T20:56:54.416Z,101385.47
2023-03-26T20:59:23.520Z,101388.91
2023-03-26T21:01:51.120Z,101389.66
2023-03-26T21:04:19.547Z,101390.97
2023-03-26T21:06:46.727Z,101400.78
2023-03-26T21:09:15.984Z,101401.41
2023-03-26T21:11:53.440Z,101391.53
2023-03-26T21:14:22.958Z,101404.22
2023-03-26T21:16:50.574Z,101399.81
2023-03-26T21:19:18.229Z,101403.38
2023-03-26T21:21:52.846Z,101407.00
2023-03-26T21:24:29.869Z,101398.31
2023-03-26T21:27:02.948Z,101406.94
2023-03-26T21:29:30.124Z,101408.03
2023-03-26T21:31:57.351Z,101414.19
2023-03-26T21:34:24.597Z,101420.31
2023-03-26T21:36:52.129Z,101419.41
2023-03-26T21:39:19.360Z,101425.59
2023-03-26T21:41:49.013Z,101431.84
2023-03-26T21:44:34.752Z,101434.66
2023-03-26T21:47:02.091Z,101443.97
2023-03-26T21:49:29.519Z,101451.13
2023-03-26T21:51:56.804Z,101445.81
2023-03-26T21:54:25.940Z,101440.66
2023-03-26T21:57:10.557Z,101460.91
2023-03-26T21:59:48.609Z,101460.16
2023-03-26T22:02:23.103Z,101465.06
2023-03-26T22:04:56.425Z,101469.28
2023-03-26T22:07:27.538Z,101480.59
2023-03-26T22:09:54.763Z,101489.31
2023-03-26T22:12:21.531Z,101492.81
2023-03-26T22:14:49.687Z,101489.88
2023-03-26T22:17:16.420Z,101502.88
2023-03-26T22:19:43.520Z,101503.59
2023-03-26T22:22:10.275Z,101505.00
2023-03-26T22:24:37.088Z,101507.50
2023-03-26T22:27:04.021Z,101515.75
2023-03-26T22:29:30.752Z,101516.63
2023-03-26T22:31:58.880Z,101518.88
2023-03-26T22:34:25.730Z,101536.75
2023-03-26T22:36:52.432Z,101530.03
2023-03-26T22:39:19.171Z,101545.00
2023-03-26T22:41:46.016Z,101532.94
2023-03-26T22:44:19.771Z,101543.53
2023-03-26T22:46:47.739Z,101540.16
2023-03-26T22:49:15.840Z,101545.63
2023-03-26T22:51:42.556Z,101553.75
2023-03-26T22:54:09.294Z,101548.47
2023-03-26T22:56:36.372Z,101553.97
2023-03-26T22:59:03.300Z,101546.81
2023-03-26T23:01:30.056Z,101552.06
2023-03-26T23:03:57.051Z,101561.00
2023-03-26T23:06:25.169Z,101561.94
2023-03-26T23:08:52.001Z,101569.91
2023-03-26T23:11:20.542Z,101577.78
2023-03-26T23:13:48.095Z,101575.84
2023-03-26T23:16:16.266Z,101580.06
2023-03-26T23:18:43.639Z,101591.47
2023-03-26T23:21:13.800Z,101579.09
2023-03-26T23:23:42.112Z,101594.91
2023-03-26T23:26:08.931Z,101594.59
2023-03-26T23:28:35.962Z,101605.63
2023-03-26T23:31:04.889Z,101623.09
2023-03-26T23:33:33.729Z,101618.13
2023-03-26T23:36:01.797Z,101640.59
2023-03-26T23:38:29.160Z,101629.97
2023-03-26T23:41:13.599Z,101633.69
2023-03-26T23:43:40.309Z,101641.84
2023-03-26T23:46:22.019Z,101641.09
2023-03-26T23:48:49.527Z,101631.56
2023-03-26T23:51:16.353Z,101646.53
2023-03-26T23:53:43.182Z,101652.72
2023-03-26T23:56:10.083Z,101658.06
2023-03-26T23:58:38.206Z,101660.00
